Atlanta, Louisiana
Current Conditions -  °F | °C
As of 4:35 PM on Monday 24 Nov 2014 (Local Time) from KIER Reporting Station
Clear Clear  
Wind Chill: 60°   Ceiling: Unl
Heat Index: 60°   Visibility: 10mi
Dew Point: 33°   Wind: 5mph
Humidity: 36%   Direction: 340°NNW
Pressure: 30.02"   Gusts: NA
Location:  31.81°N, 92.74°W
Report Text: KIER 242235Z AUTO 34004KT 10SM CLR 16/01 A3002 RMK AO2 T01570006
Loading
Personal Weather Stations






























Interactive Weather Map New forecast layout! Learn more

10-Day Weather Forecast

Advertisements
Track Severe Weather on mobile